UKV1396 EGGP-EGFF
Flight info
| Callsign | UKV1396 |
|---|---|
| Flight time | 0h 29m |
| Altitude | 22000 |
| Route | REXAM DCT MONTY |
| Aircraft | E75L/M-SDE3GILORVW/S |
Departure
| Time | 2026-05-04 12:59 |
|---|---|
| Airport | Liverpool John Lennon Airport (EGGP) |
Arrival
| Time | 2026-05-04 13:28 |
|---|---|
| Airport | Cardiff International Airport (EGFF) |
| Time | Latitude | Longitude | Altitude | Speed | Heading |
|---|---|---|---|---|---|
| 2026-05-04 12:46 | 53.33650 | -2.85277 | 87 ft | 0 kts | 176° |
| 2026-05-04 12:54 | 53.33638 | -2.85270 | 87 ft | 2 kts | 136° |
| 2026-05-04 12:55 | 53.33630 | -2.85187 | 87 ft | 9 kts | 88° |
| 2026-05-04 12:55 | 53.33634 | -2.85095 | 87 ft | 10 kts | 87° |
| 2026-05-04 12:55 | 53.33627 | -2.85044 | 87 ft | 1 kts | 123° |
| 2026-05-04 12:56 | 53.33605 | -2.85017 | 87 ft | 2 kts | 161° |
| 2026-05-04 12:56 | 53.33558 | -2.84972 | 87 ft | 6 kts | 122° |
| 2026-05-04 12:56 | 53.33555 | -2.84842 | 87 ft | 17 kts | 85° |
| 2026-05-04 12:56 | 53.33563 | -2.84620 | 87 ft | 23 kts | 86° |
| 2026-05-04 12:57 | 53.33574 | -2.84345 | 87 ft | 21 kts | 85° |
| 2026-05-04 12:57 | 53.33589 | -2.84063 | 87 ft | 28 kts | 85° |
| 2026-05-04 12:57 | 53.33605 | -2.83745 | 87 ft | 20 kts | 86° |
| 2026-05-04 12:57 | 53.33615 | -2.83489 | 87 ft | 26 kts | 86° |
| 2026-05-04 12:58 | 53.33626 | -2.83208 | 87 ft | 21 kts | 86° |
| 2026-05-04 12:58 | 53.33612 | -2.83006 | 87 ft | 10 kts | 141° |
| 2026-05-04 12:58 | 53.33571 | -2.82998 | 87 ft | 7 kts | 186° |
| 2026-05-04 12:58 | 53.33511 | -2.83033 | 87 ft | 11 kts | 223° |
| 2026-05-04 12:59 | 53.33496 | -2.83139 | 87 ft | 36 kts | 265° |
| 2026-05-04 12:59 | 53.33445 | -2.84271 | 88 ft | 156 kts | 266° |
| 2026-05-04 12:59 | 53.33349 | -2.86421 | 682 ft | 200 kts | 266° |
| 2026-05-04 12:59 | 53.33112 | -2.88774 | 1184 ft | 214 kts | 252° |
| 2026-05-04 13:00 | 53.32227 | -2.90721 | 1733 ft | 212 kts | 225° |
| 2026-05-04 13:00 | 53.31266 | -2.92611 | 2211 ft | 214 kts | 241° |
| 2026-05-04 13:00 | 53.30797 | -2.94974 | 2737 ft | 216 kts | 257° |
| 2026-05-04 13:00 | 53.30528 | -2.97435 | 3240 ft | 214 kts | 262° |
| 2026-05-04 13:01 | 53.30316 | -2.99889 | 3738 ft | 213 kts | 263° |
| 2026-05-04 13:01 | 53.30118 | -3.02356 | 4243 ft | 213 kts | 264° |
| 2026-05-04 13:01 | 53.29924 | -3.04816 | 4743 ft | 214 kts | 264° |
| 2026-05-04 13:01 | 53.29730 | -3.07287 | 5224 ft | 218 kts | 264° |
| 2026-05-04 13:02 | 53.29537 | -3.09841 | 5842 ft | 232 kts | 263° |
| 2026-05-04 13:02 | 53.28964 | -3.12492 | 6473 ft | 250 kts | 240° |
| 2026-05-04 13:02 | 53.27726 | -3.14562 | 7111 ft | 261 kts | 215° |
| 2026-05-04 13:02 | 53.26012 | -3.15661 | 7759 ft | 269 kts | 191° |
| 2026-05-04 13:03 | 53.24125 | -3.15881 | 8412 ft | 274 kts | 180° |
| 2026-05-04 13:03 | 53.22208 | -3.15746 | 9042 ft | 276 kts | 177° |
| 2026-05-04 13:03 | 53.20261 | -3.15551 | 9677 ft | 279 kts | 177° |
| 2026-05-04 13:03 | 53.18289 | -3.15420 | 10314 ft | 299 kts | 179° |
| 2026-05-04 13:04 | 53.16126 | -3.15380 | 10959 ft | 312 kts | 180° |
| 2026-05-04 13:04 | 53.13939 | -3.15451 | 11591 ft | 319 kts | 182° |
| 2026-05-04 13:04 | 53.11693 | -3.15580 | 12221 ft | 325 kts | 182° |
| 2026-05-04 13:04 | 53.09436 | -3.15751 | 12845 ft | 330 kts | 183° |
| 2026-05-04 13:05 | 53.07124 | -3.15953 | 13474 ft | 334 kts | 183° |
| 2026-05-04 13:05 | 53.04779 | -3.16145 | 14105 ft | 338 kts | 183° |
| 2026-05-04 13:05 | 53.02426 | -3.16331 | 14729 ft | 341 kts | 183° |
| 2026-05-04 13:05 | 53.00034 | -3.16514 | 15358 ft | 345 kts | 183° |
| 2026-05-04 13:06 | 52.97624 | -3.16696 | 15986 ft | 348 kts | 183° |
| 2026-05-04 13:06 | 52.95181 | -3.16884 | 16617 ft | 352 kts | 183° |
| 2026-05-04 13:06 | 52.92751 | -3.17080 | 17237 ft | 355 kts | 183° |
| 2026-05-04 13:06 | 52.90281 | -3.17247 | 17865 ft | 358 kts | 181° |
| 2026-05-04 13:07 | 52.87768 | -3.17269 | 18501 ft | 361 kts | 180° |
| 2026-05-04 13:07 | 52.85230 | -3.17170 | 19136 ft | 365 kts | 178° |
| 2026-05-04 13:07 | 52.82671 | -3.16989 | 19767 ft | 368 kts | 177° |
| 2026-05-04 13:07 | 52.80104 | -3.16772 | 20393 ft | 372 kts | 177° |
| 2026-05-04 13:08 | 52.77517 | -3.16538 | 21018 ft | 375 kts | 177° |
| 2026-05-04 13:08 | 52.74889 | -3.16292 | 21649 ft | 378 kts | 177° |
| 2026-05-04 13:08 | 52.72253 | -3.16043 | 21979 ft | 389 kts | 177° |
| 2026-05-04 13:08 | 52.69533 | -3.15785 | 22044 ft | 390 kts | 177° |
| 2026-05-04 13:09 | 52.66848 | -3.15529 | 22053 ft | 390 kts | 177° |
| 2026-05-04 13:09 | 52.64123 | -3.15269 | 22053 ft | 391 kts | 177° |
| 2026-05-04 13:09 | 52.61404 | -3.15019 | 22052 ft | 391 kts | 177° |
| 2026-05-04 13:09 | 52.58673 | -3.14802 | 22052 ft | 392 kts | 177° |
| 2026-05-04 13:10 | 52.55941 | -3.14592 | 22052 ft | 392 kts | 177° |
| 2026-05-04 13:10 | 52.53215 | -3.14370 | 22052 ft | 392 kts | 177° |
| 2026-05-04 13:10 | 52.50497 | -3.14134 | 22052 ft | 392 kts | 177° |
| 2026-05-04 13:10 | 52.47771 | -3.13890 | 22052 ft | 392 kts | 177° |
| 2026-05-04 13:11 | 52.45057 | -3.13662 | 22052 ft | 392 kts | 177° |
| 2026-05-04 13:11 | 52.42329 | -3.13452 | 22052 ft | 392 kts | 177° |
| 2026-05-04 13:11 | 52.39603 | -3.13224 | 22052 ft | 392 kts | 177° |
| 2026-05-04 13:11 | 52.36868 | -3.12994 | 22053 ft | 393 kts | 177° |
| 2026-05-04 13:12 | 52.34159 | -3.12761 | 22052 ft | 392 kts | 177° |
| 2026-05-04 13:12 | 52.31433 | -3.12541 | 22052 ft | 392 kts | 177° |
| 2026-05-04 13:12 | 52.28659 | -3.12314 | 21757 ft | 396 kts | 177° |
| 2026-05-04 13:12 | 52.25921 | -3.12080 | 21285 ft | 395 kts | 177° |
| 2026-05-04 13:13 | 52.23194 | -3.11863 | 20765 ft | 389 kts | 177° |
| 2026-05-04 13:13 | 52.20502 | -3.11647 | 20238 ft | 382 kts | 177° |
| 2026-05-04 13:13 | 52.17880 | -3.11430 | 19713 ft | 376 kts | 177° |
| 2026-05-04 13:13 | 52.15277 | -3.11240 | 19190 ft | 371 kts | 178° |
| 2026-05-04 13:14 | 52.12737 | -3.11603 | 18728 ft | 365 kts | 191° |
| 2026-05-04 13:14 | 52.10297 | -3.12729 | 18303 ft | 361 kts | 200° |
| 2026-05-04 13:14 | 52.08000 | -3.14330 | 17867 ft | 358 kts | 206° |
| 2026-05-04 13:14 | 52.05822 | -3.16229 | 17424 ft | 355 kts | 210° |
| 2026-05-04 13:15 | 52.03596 | -3.17961 | 16974 ft | 353 kts | 202° |
| 2026-05-04 13:15 | 52.01289 | -3.19218 | 16531 ft | 351 kts | 196° |
| 2026-05-04 13:15 | 51.98894 | -3.20135 | 16081 ft | 349 kts | 192° |
| 2026-05-04 13:15 | 51.96519 | -3.20800 | 15636 ft | 346 kts | 189° |
| 2026-05-04 13:16 | 51.94168 | -3.21339 | 15188 ft | 337 kts | 188° |
| 2026-05-04 13:16 | 51.91887 | -3.21811 | 14735 ft | 324 kts | 187° |
| 2026-05-04 13:16 | 51.89681 | -3.22270 | 14282 ft | 315 kts | 188° |
| 2026-05-04 13:16 | 51.87527 | -3.22725 | 13830 ft | 309 kts | 188° |
| 2026-05-04 13:17 | 51.85418 | -3.23198 | 13379 ft | 304 kts | 188° |
| 2026-05-04 13:17 | 51.83340 | -3.23688 | 12928 ft | 300 kts | 189° |
| 2026-05-04 13:17 | 51.81273 | -3.24183 | 12476 ft | 297 kts | 189° |
| 2026-05-04 13:17 | 51.79234 | -3.24674 | 12024 ft | 295 kts | 189° |
| 2026-05-04 13:18 | 51.77206 | -3.25164 | 11573 ft | 292 kts | 189° |
| 2026-05-04 13:18 | 51.75225 | -3.25643 | 11127 ft | 290 kts | 189° |
| 2026-05-04 13:18 | 51.73229 | -3.26125 | 10674 ft | 288 kts | 188° |
| 2026-05-04 13:18 | 51.71256 | -3.26578 | 10223 ft | 286 kts | 188° |
| 2026-05-04 13:19 | 51.69293 | -3.27014 | 9773 ft | 284 kts | 188° |
| 2026-05-04 13:19 | 51.67337 | -3.27443 | 9320 ft | 282 kts | 188° |
| 2026-05-04 13:19 | 51.65413 | -3.27863 | 8874 ft | 280 kts | 188° |
| 2026-05-04 13:19 | 51.63476 | -3.28287 | 8419 ft | 278 kts | 188° |
| 2026-05-04 13:20 | 51.61580 | -3.28700 | 7959 ft | 276 kts | 188° |
| 2026-05-04 13:20 | 51.59681 | -3.29116 | 7456 ft | 275 kts | 188° |
| 2026-05-04 13:20 | 51.57784 | -3.29530 | 6955 ft | 272 kts | 188° |
| 2026-05-04 13:20 | 51.55916 | -3.29958 | 6453 ft | 270 kts | 188° |
| 2026-05-04 13:21 | 51.54110 | -3.30654 | 5934 ft | 268 kts | 203° |
| 2026-05-04 13:21 | 51.52570 | -3.32262 | 5453 ft | 256 kts | 220° |
| 2026-05-04 13:21 | 51.51324 | -3.34185 | 4965 ft | 247 kts | 228° |
| 2026-05-04 13:21 | 51.50294 | -3.36329 | 4449 ft | 240 kts | 240° |
| 2026-05-04 13:22 | 51.49820 | -3.38825 | 4112 ft | 227 kts | 264° |
| 2026-05-04 13:22 | 51.49882 | -3.41307 | 4036 ft | 221 kts | 279° |
| 2026-05-04 13:22 | 51.50321 | -3.43648 | 4017 ft | 218 kts | 293° |
| 2026-05-04 13:22 | 51.50996 | -3.45824 | 4010 ft | 218 kts | 299° |
| 2026-05-04 13:23 | 51.51429 | -3.47153 | 4005 ft | 219 kts | 297° |
| 2026-05-04 13:23 | 51.51677 | -3.48011 | 3988 ft | 220 kts | 295° |
| 2026-05-04 13:23 | 51.52184 | -3.50363 | 3968 ft | 224 kts | 284° |
| 2026-05-04 13:23 | 51.52165 | -3.52911 | 3625 ft | 235 kts | 257° |
| 2026-05-04 13:24 | 51.51430 | -3.55180 | 3284 ft | 229 kts | 230° |
| 2026-05-04 13:24 | 51.50189 | -3.56766 | 2916 ft | 226 kts | 209° |
| 2026-05-04 13:24 | 51.48709 | -3.57326 | 2627 ft | 214 kts | 179° |
| 2026-05-04 13:25 | 51.46491 | -3.55236 | 2412 ft | 179 kts | 127° |
| 2026-05-04 13:25 | 51.45827 | -3.53590 | 2271 ft | 172 kts | 119° |
| 2026-05-04 13:25 | 51.45252 | -3.51935 | 2169 ft | 165 kts | 117° |
| 2026-05-04 13:25 | 51.44725 | -3.50328 | 2169 ft | 163 kts | 116° |
| 2026-05-04 13:26 | 51.44204 | -3.48720 | 2169 ft | 161 kts | 116° |
| 2026-05-04 13:26 | 51.43688 | -3.47107 | 1983 ft | 166 kts | 115° |
| 2026-05-04 13:26 | 51.43180 | -3.45482 | 1660 ft | 154 kts | 115° |
| 2026-05-04 13:26 | 51.42723 | -3.44021 | 1522 ft | 139 kts | 115° |
| 2026-05-04 13:27 | 51.42277 | -3.42694 | 1311 ft | 139 kts | 117° |
| 2026-05-04 13:27 | 51.41813 | -3.41292 | 976 ft | 148 kts | 116° |
| 2026-05-04 13:27 | 51.41328 | -3.39773 | 856 ft | 146 kts | 115° |
| 2026-05-04 13:27 | 51.40888 | -3.38326 | 648 ft | 146 kts | 115° |
| 2026-05-04 13:28 | 51.40452 | -3.36876 | 414 ft | 141 kts | 116° |
| 2026-05-04 13:28 | 51.40027 | -3.35507 | 243 ft | 122 kts | 116° |
| 2026-05-04 13:28 | 51.39739 | -3.34606 | 227 ft | 45 kts | 116° |
| 2026-05-04 13:28 | 51.39659 | -3.34343 | 227 ft | 24 kts | 113° |
| 2026-05-04 13:29 | 51.39641 | -3.34094 | 227 ft | 18 kts | 80° |
| 2026-05-04 13:29 | 51.39649 | -3.33992 | 227 ft | 14 kts | 83° |
| 2026-05-04 13:29 | 51.39652 | -3.33816 | 227 ft | 6 kts | 73° |
| 2026-05-04 13:29 | 51.39689 | -3.33765 | 227 ft | 9 kts | 27° |
| 2026-05-04 13:30 | 51.39732 | -3.33747 | 227 ft | 2 kts | 329° |
| 2026-05-04 13:30 | 51.39745 | -3.33769 | 227 ft | 6 kts | 314° |
| 2026-05-04 13:30 | 51.39759 | -3.33791 | 227 ft | 0 kts | 316° |